sensor_id;sensor_type;location;lat;lon;timestamp;P1;durP1;ratioP1;P2;durP2;ratioP2
38783;SDS011;24531;45.502;12.238;2023-07-20T00:01:36;12.07;;;6.75;;
38783;SDS011;24531;45.502;12.238;2023-07-20T00:04:06;10.48;;;6.10;;
38783;SDS011;24531;45.502;12.238;2023-07-20T00:07:08;9.50;;;6.07;;
38783;SDS011;24531;45.502;12.238;2023-07-20T00:12:33;9.45;;;6.55;;
38783;SDS011;24531;45.502;12.238;2023-07-20T00:15:08;11.60;;;6.30;;
38783;SDS011;24531;45.502;12.238;2023-07-20T00:17:33;10.32;;;6.00;;
38783;SDS011;24531;45.502;12.238;2023-07-20T00:19:59;8.25;;;5.38;;
38783;SDS011;24531;45.502;12.238;2023-07-20T00:22:34;9.13;;;5.20;;
38783;SDS011;24531;45.502;12.238;2023-07-20T00:25:00;10.65;;;5.72;;
38783;SDS011;24531;45.502;12.238;2023-07-20T00:27:26;8.50;;;5.28;;
38783;SDS011;24531;45.502;12.238;2023-07-20T00:29:52;12.57;;;5.72;;
38783;SDS011;24531;45.502;12.238;2023-07-20T00:32:48;10.35;;;5.22;;
38783;SDS011;24531;45.502;12.238;2023-07-20T00:35:23;7.97;;;4.07;;
38783;SDS011;24531;45.502;12.238;2023-07-20T00:37:58;11.90;;;5.30;;
38783;SDS011;24531;45.502;12.238;2023-07-20T00:40:39;9.48;;;4.95;;
38783;SDS011;24531;45.502;12.238;2023-07-20T00:47:00;8.07;;;4.32;;
38783;SDS011;24531;45.502;12.238;2023-07-20T00:49:36;7.72;;;4.15;;
38783;SDS011;24531;45.502;12.238;2023-07-20T00:52:03;9.82;;;5.00;;
38783;SDS011;24531;45.502;12.238;2023-07-20T00:54:31;8.75;;;4.60;;
38783;SDS011;24531;45.502;12.238;2023-07-20T00:56:57;9.00;;;4.57;;
38783;SDS011;24531;45.502;12.238;2023-07-20T00:59:25;9.10;;;4.80;;
38783;SDS011;24531;45.502;12.238;2023-07-20T01:01:51;9.05;;;4.70;;
38783;SDS011;24531;45.502;12.238;2023-07-20T01:04:17;10.63;;;4.93;;
38783;SDS011;24531;45.502;12.238;2023-07-20T01:06:45;10.05;;;5.03;;
38783;SDS011;24531;45.502;12.238;2023-07-20T01:09:35;6.30;;;4.63;;
38783;SDS011;24531;45.502;12.238;2023-07-20T01:14:51;7.97;;;4.72;;
38783;SDS011;24531;45.502;12.238;2023-07-20T01:17:17;10.70;;;5.13;;
38783;SDS011;24531;45.502;12.238;2023-07-20T01:19:43;7.55;;;4.70;;
38783;SDS011;24531;45.502;12.238;2023-07-20T01:22:20;13.35;;;5.78;;
38783;SDS011;24531;45.502;12.238;2023-07-20T01:33:56;8.73;;;5.35;;
38783;SDS011;24531;45.502;12.238;2023-07-20T01:36:27;13.60;;;5.75;;
38783;SDS011;24531;45.502;12.238;2023-07-20T01:38:55;13.07;;;5.13;;
38783;SDS011;24531;45.502;12.238;2023-07-20T01:41:21;10.48;;;5.30;;
38783;SDS011;24531;45.502;12.238;2023-07-20T01:43:48;11.63;;;5.55;;
38783;SDS011;24531;45.502;12.238;2023-07-20T01:46:13;11.63;;;5.65;;
38783;SDS011;24531;45.502;12.238;2023-07-20T01:48:39;8.95;;;5.32;;
38783;SDS011;24531;45.502;12.238;2023-07-20T01:51:05;10.88;;;5.00;;
38783;SDS011;24531;45.502;12.238;2023-07-20T01:53:30;11.25;;;5.90;;
38783;SDS011;24531;45.502;12.238;2023-07-20T01:55:56;11.93;;;5.30;;
38783;SDS011;24531;45.502;12.238;2023-07-20T01:58:22;8.50;;;5.38;;
38783;SDS011;24531;45.502;12.238;2023-07-20T02:00:48;7.88;;;5.38;;
38783;SDS011;24531;45.502;12.238;2023-07-20T02:03:14;11.35;;;5.22;;
38783;SDS011;24531;45.502;12.238;2023-07-20T02:05:43;7.45;;;5.15;;
38783;SDS011;24531;45.502;12.238;2023-07-20T02:08:09;9.75;;;5.30;;
38783;SDS011;24531;45.502;12.238;2023-07-20T02:10:35;10.30;;;5.50;;
38783;SDS011;24531;45.502;12.238;2023-07-20T02:13:01;11.85;;;5.47;;
38783;SDS011;24531;45.502;12.238;2023-07-20T02:15:26;7.15;;;4.80;;
38783;SDS011;24531;45.502;12.238;2023-07-20T02:17:53;7.82;;;4.70;;
38783;SDS011;24531;45.502;12.238;2023-07-20T02:20:19;8.95;;;4.53;;
38783;SDS011;24531;45.502;12.238;2023-07-20T02:22:44;10.50;;;5.50;;
38783;SDS011;24531;45.502;12.238;2023-07-20T02:25:10;11.98;;;5.65;;
38783;SDS011;24531;45.502;12.238;2023-07-20T02:27:36;6.45;;;4.88;;
38783;SDS011;24531;45.502;12.238;2023-07-20T02:30:03;6.57;;;4.57;;
38783;SDS011;24531;45.502;12.238;2023-07-20T02:32:29;8.40;;;4.60;;
38783;SDS011;24531;45.502;12.238;2023-07-20T02:34:55;11.85;;;5.65;;
38783;SDS011;24531;45.502;12.238;2023-07-20T02:37:21;9.15;;;5.95;;
38783;SDS011;24531;45.502;12.238;2023-07-20T02:39:47;8.82;;;6.13;;
38783;SDS011;24531;45.502;12.238;2023-07-20T02:42:12;7.80;;;5.72;;
38783;SDS011;24531;45.502;12.238;2023-07-20T02:44:38;11.23;;;6.45;;
38783;SDS011;24531;45.502;12.238;2023-07-20T02:47:03;9.48;;;6.30;;
38783;SDS011;24531;45.502;12.238;2023-07-20T02:49:29;10.45;;;5.60;;
38783;SDS011;24531;45.502;12.238;2023-07-20T02:51:55;12.75;;;6.20;;
38783;SDS011;24531;45.502;12.238;2023-07-20T02:54:20;9.57;;;6.43;;
38783;SDS011;24531;45.502;12.238;2023-07-20T02:56:46;11.70;;;6.47;;
38783;SDS011;24531;45.502;12.238;2023-07-20T02:59:12;13.90;;;7.35;;
38783;SDS011;24531;45.502;12.238;2023-07-20T03:01:37;14.18;;;6.43;;
38783;SDS011;24531;45.502;12.238;2023-07-20T03:04:03;9.00;;;6.18;;
38783;SDS011;24531;45.502;12.238;2023-07-20T03:06:29;12.80;;;6.63;;
38783;SDS011;24531;45.502;12.238;2023-07-20T03:08:55;12.30;;;6.25;;
38783;SDS011;24531;45.502;12.238;2023-07-20T03:11:21;11.93;;;7.28;;
38783;SDS011;24531;45.502;12.238;2023-07-20T03:13:47;10.40;;;7.53;;
38783;SDS011;24531;45.502;12.238;2023-07-20T03:16:14;10.68;;;6.63;;
38783;SDS011;24531;45.502;12.238;2023-07-20T03:18:44;10.60;;;6.75;;
38783;SDS011;24531;45.502;12.238;2023-07-20T03:21:10;13.85;;;6.85;;
38783;SDS011;24531;45.502;12.238;2023-07-20T03:23:39;12.95;;;7.35;;
38783;SDS011;24531;45.502;12.238;2023-07-20T03:26:05;12.02;;;6.45;;
38783;SDS011;24531;45.502;12.238;2023-07-20T03:28:33;10.25;;;5.57;;
38783;SDS011;24531;45.502;12.238;2023-07-20T03:30:59;10.23;;;5.95;;
38783;SDS011;24531;45.502;12.238;2023-07-20T03:33:25;11.10;;;5.88;;
38783;SDS011;24531;45.502;12.238;2023-07-20T03:35:53;10.95;;;6.07;;
38783;SDS011;24531;45.502;12.238;2023-07-20T03:38:19;8.15;;;5.93;;
38783;SDS011;24531;45.502;12.238;2023-07-20T03:40:54;12.13;;;6.10;;
38783;SDS011;24531;45.502;12.238;2023-07-20T03:43:24;18.08;;;6.95;;
38783;SDS011;24531;45.502;12.238;2023-07-20T03:45:53;7.85;;;5.78;;
38783;SDS011;24531;45.502;12.238;2023-07-20T03:48:22;11.02;;;5.82;;
38783;SDS011;24531;45.502;12.238;2023-07-20T03:50:50;9.57;;;5.72;;
38783;SDS011;24531;45.502;12.238;2023-07-20T03:53:20;11.45;;;6.15;;
38783;SDS011;24531;45.502;12.238;2023-07-20T03:55:46;11.75;;;5.20;;
38783;SDS011;24531;45.502;12.238;2023-07-20T03:58:13;11.57;;;6.43;;
38783;SDS011;24531;45.502;12.238;2023-07-20T04:00:39;11.55;;;5.80;;
38783;SDS011;24531;45.502;12.238;2023-07-20T04:03:05;11.13;;;6.47;;
38783;SDS011;24531;45.502;12.238;2023-07-20T04:05:31;9.43;;;6.57;;
38783;SDS011;24531;45.502;12.238;2023-07-20T04:07:56;12.13;;;5.93;;
38783;SDS011;24531;45.502;12.238;2023-07-20T04:10:23;12.00;;;6.13;;
38783;SDS011;24531;45.502;12.238;2023-07-20T04:12:51;11.32;;;6.18;;
38783;SDS011;24531;45.502;12.238;2023-07-20T04:15:17;11.60;;;6.88;;
38783;SDS011;24531;45.502;12.238;2023-07-20T04:17:42;12.25;;;5.78;;
38783;SDS011;24531;45.502;12.238;2023-07-20T04:20:09;10.30;;;6.22;;
38783;SDS011;24531;45.502;12.238;2023-07-20T04:22:35;10.32;;;6.63;;
38783;SDS011;24531;45.502;12.238;2023-07-20T04:25:01;12.13;;;6.88;;
38783;SDS011;24531;45.502;12.238;2023-07-20T04:27:26;12.75;;;6.22;;
38783;SDS011;24531;45.502;12.238;2023-07-20T04:29:52;8.73;;;5.78;;
38783;SDS011;24531;45.502;12.238;2023-07-20T04:32:18;12.68;;;6.07;;
38783;SDS011;24531;45.502;12.238;2023-07-20T04:34:47;11.50;;;6.25;;
38783;SDS011;24531;45.502;12.238;2023-07-20T04:37:12;12.77;;;5.97;;
38783;SDS011;24531;45.502;12.238;2023-07-20T04:39:41;9.68;;;5.82;;
38783;SDS011;24531;45.502;12.238;2023-07-20T04:42:06;9.00;;;5.80;;
38783;SDS011;24531;45.502;12.238;2023-07-20T04:44:32;8.80;;;6.45;;
38783;SDS011;24531;45.502;12.238;2023-07-20T04:46:58;11.85;;;5.68;;
38783;SDS011;24531;45.502;12.238;2023-07-20T04:49:23;9.23;;;5.72;;
38783;SDS011;24531;45.502;12.238;2023-07-20T04:51:49;7.90;;;5.18;;
38783;SDS011;24531;45.502;12.238;2023-07-20T04:54:15;10.88;;;5.35;;
38783;SDS011;24531;45.502;12.238;2023-07-20T04:56:41;8.38;;;4.97;;
38783;SDS011;24531;45.502;12.238;2023-07-20T04:59:10;8.30;;;5.32;;
38783;SDS011;24531;45.502;12.238;2023-07-20T05:01:38;10.55;;;5.93;;
38783;SDS011;24531;45.502;12.238;2023-07-20T05:04:04;6.70;;;5.35;;
38783;SDS011;24531;45.502;12.238;2023-07-20T05:06:30;10.25;;;5.57;;
38783;SDS011;24531;45.502;12.238;2023-07-20T05:08:56;10.13;;;5.22;;
38783;SDS011;24531;45.502;12.238;2023-07-20T05:11:21;7.53;;;4.60;;
38783;SDS011;24531;45.502;12.238;2023-07-20T05:13:47;8.63;;;5.57;;
38783;SDS011;24531;45.502;12.238;2023-07-20T05:16:12;9.93;;;5.25;;
38783;SDS011;24531;45.502;12.238;2023-07-20T05:18:38;7.55;;;5.22;;
38783;SDS011;24531;45.502;12.238;2023-07-20T05:21:06;8.57;;;4.50;;
38783;SDS011;24531;45.502;12.238;2023-07-20T05:23:33;8.32;;;4.78;;
38783;SDS011;24531;45.502;12.238;2023-07-20T05:25:58;6.93;;;4.60;;
38783;SDS011;24531;45.502;12.238;2023-07-20T05:28:27;6.78;;;5.22;;
38783;SDS011;24531;45.502;12.238;2023-07-20T05:30:53;8.88;;;5.10;;
38783;SDS011;24531;45.502;12.238;2023-07-20T05:33:19;12.07;;;6.47;;
38783;SDS011;24531;45.502;12.238;2023-07-20T05:35:45;9.85;;;4.97;;
38783;SDS011;24531;45.502;12.238;2023-07-20T05:38:11;6.63;;;5.10;;
38783;SDS011;24531;45.502;12.238;2023-07-20T05:40:37;7.13;;;4.38;;
38783;SDS011;24531;45.502;12.238;2023-07-20T05:43:04;12.73;;;5.25;;
38783;SDS011;24531;45.502;12.238;2023-07-20T05:45:30;8.80;;;5.15;;
38783;SDS011;24531;45.502;12.238;2023-07-20T05:47:56;8.27;;;4.55;;
38783;SDS011;24531;45.502;12.238;2023-07-20T05:50:21;7.00;;;4.63;;
38783;SDS011;24531;45.502;12.238;2023-07-20T05:52:56;9.18;;;4.80;;
38783;SDS011;24531;45.502;12.238;2023-07-20T05:55:24;11.77;;;4.80;;
38783;SDS011;24531;45.502;12.238;2023-07-20T05:57:50;8.80;;;5.03;;
38783;SDS011;24531;45.502;12.238;2023-07-20T06:00:16;6.10;;;4.10;;
38783;SDS011;24531;45.502;12.238;2023-07-20T06:02:51;7.20;;;4.65;;
38783;SDS011;24531;45.502;12.238;2023-07-20T06:05:18;8.20;;;4.55;;
38783;SDS011;24531;45.502;12.238;2023-07-20T06:07:45;6.90;;;4.32;;
38783;SDS011;24531;45.502;12.238;2023-07-20T06:10:10;7.45;;;4.15;;
38783;SDS011;24531;45.502;12.238;2023-07-20T06:12:39;8.18;;;3.75;;
38783;SDS011;24531;45.502;12.238;2023-07-20T06:15:05;7.78;;;4.20;;
38783;SDS011;24531;45.502;12.238;2023-07-20T06:17:31;8.02;;;3.95;;
38783;SDS011;24531;45.502;12.238;2023-07-20T06:19:58;8.52;;;3.60;;
38783;SDS011;24531;45.502;12.238;2023-07-20T06:22:23;6.65;;;4.47;;
38783;SDS011;24531;45.502;12.238;2023-07-20T06:24:49;6.13;;;3.47;;
38783;SDS011;24531;45.502;12.238;2023-07-20T06:27:15;6.60;;;3.97;;
38783;SDS011;24531;45.502;12.238;2023-07-20T06:29:41;10.30;;;3.63;;
38783;SDS011;24531;45.502;12.238;2023-07-20T06:32:07;7.65;;;3.80;;
38783;SDS011;24531;45.502;12.238;2023-07-20T06:34:33;5.22;;;3.33;;
38783;SDS011;24531;45.502;12.238;2023-07-20T06:37:02;6.55;;;3.60;;
38783;SDS011;24531;45.502;12.238;2023-07-20T06:39:29;5.85;;;3.63;;
38783;SDS011;24531;45.502;12.238;2023-07-20T06:41:54;6.63;;;3.55;;
38783;SDS011;24531;45.502;12.238;2023-07-20T06:44:23;4.93;;;3.08;;
38783;SDS011;24531;45.502;12.238;2023-07-20T06:46:48;6.00;;;3.28;;
38783;SDS011;24531;45.502;12.238;2023-07-20T06:49:24;4.18;;;3.13;;
38783;SDS011;24531;45.502;12.238;2023-07-20T06:51:51;6.35;;;3.40;;
38783;SDS011;24531;45.502;12.238;2023-07-20T06:54:16;7.95;;;3.13;;
38783;SDS011;24531;45.502;12.238;2023-07-20T06:56:42;6.45;;;3.45;;
38783;SDS011;24531;45.502;12.238;2023-07-20T06:59:07;4.65;;;2.88;;
38783;SDS011;24531;45.502;12.238;2023-07-20T07:01:39;7.15;;;3.75;;
38783;SDS011;24531;45.502;12.238;2023-07-20T07:04:17;3.90;;;2.53;;
38783;SDS011;24531;45.502;12.238;2023-07-20T07:06:42;7.70;;;3.40;;
38783;SDS011;24531;45.502;12.238;2023-07-20T07:09:09;6.38;;;3.00;;
38783;SDS011;24531;45.502;12.238;2023-07-20T07:11:35;7.40;;;3.80;;
38783;SDS011;24531;45.502;12.238;2023-07-20T07:14:01;5.55;;;3.67;;
38783;SDS011;24531;45.502;12.238;2023-07-20T07:16:29;6.53;;;3.25;;
38783;SDS011;24531;45.502;12.238;2023-07-20T07:18:55;5.47;;;3.17;;
38783;SDS011;24531;45.502;12.238;2023-07-20T07:21:21;5.78;;;3.58;;
38783;SDS011;24531;45.502;12.238;2023-07-20T07:23:46;8.90;;;3.03;;
38783;SDS011;24531;45.502;12.238;2023-07-20T07:26:12;3.92;;;3.00;;
38783;SDS011;24531;45.502;12.238;2023-07-20T07:28:38;4.68;;;3.42;;
38783;SDS011;24531;45.502;12.238;2023-07-20T07:31:04;10.75;;;2.97;;
38783;SDS011;24531;45.502;12.238;2023-07-20T07:33:33;6.72;;;3.28;;
38783;SDS011;24531;45.502;12.238;2023-07-20T07:36:03;5.70;;;3.10;;
38783;SDS011;24531;45.502;12.238;2023-07-20T07:38:29;6.40;;;3.40;;
38783;SDS011;24531;45.502;12.238;2023-07-20T07:40:57;5.93;;;3.35;;
38783;SDS011;24531;45.502;12.238;2023-07-20T07:43:36;5.97;;;2.40;;
38783;SDS011;24531;45.502;12.238;2023-07-20T07:46:04;5.40;;;2.65;;
38783;SDS011;24531;45.502;12.238;2023-07-20T07:48:30;5.75;;;2.80;;
38783;SDS011;24531;45.502;12.238;2023-07-20T07:50:56;4.90;;;3.40;;
38783;SDS011;24531;45.502;12.238;2023-07-20T07:53:27;7.00;;;2.70;;
38783;SDS011;24531;45.502;12.238;2023-07-20T07:55:53;3.00;;;2.40;;
38783;SDS011;24531;45.502;12.238;2023-07-20T07:58:18;6.93;;;2.70;;
38783;SDS011;24531;45.502;12.238;2023-07-20T08:00:45;4.75;;;2.83;;
38783;SDS011;24531;45.502;12.238;2023-07-20T08:03:13;4.88;;;2.42;;
38783;SDS011;24531;45.502;12.238;2023-07-20T08:05:38;4.57;;;2.55;;
38783;SDS011;24531;45.502;12.238;2023-07-20T08:08:07;5.82;;;2.78;;
38783;SDS011;24531;45.502;12.238;2023-07-20T08:10:33;2.83;;;2.15;;
38783;SDS011;24531;45.502;12.238;2023-07-20T08:12:59;3.63;;;2.75;;
38783;SDS011;24531;45.502;12.238;2023-07-20T08:23:11;5.50;;;2.47;;
38783;SDS011;24531;45.502;12.238;2023-07-20T08:25:37;7.30;;;2.70;;
38783;SDS011;24531;45.502;12.238;2023-07-20T08:28:10;6.45;;;2.53;;
38783;SDS011;24531;45.502;12.238;2023-07-20T08:30:40;4.78;;;2.70;;
38783;SDS011;24531;45.502;12.238;2023-07-20T08:33:07;2.60;;;2.20;;
38783;SDS011;24531;45.502;12.238;2023-07-20T08:35:33;5.78;;;2.42;;
38783;SDS011;24531;45.502;12.238;2023-07-20T08:37:59;3.63;;;2.35;;
38783;SDS011;24531;45.502;12.238;2023-07-20T08:40:24;4.20;;;2.38;;
38783;SDS011;24531;45.502;12.238;2023-07-20T08:42:50;4.35;;;2.50;;
38783;SDS011;24531;45.502;12.238;2023-07-20T08:45:16;2.88;;;2.20;;
38783;SDS011;24531;45.502;12.238;2023-07-20T08:47:43;3.22;;;2.53;;
38783;SDS011;24531;45.502;12.238;2023-07-20T08:50:10;5.35;;;1.70;;
38783;SDS011;24531;45.502;12.238;2023-07-20T08:52:37;3.55;;;2.13;;
38783;SDS011;24531;45.502;12.238;2023-07-20T08:55:03;6.55;;;2.83;;
38783;SDS011;24531;45.502;12.238;2023-07-20T08:57:31;4.25;;;2.38;;
38783;SDS011;24531;45.502;12.238;2023-07-20T09:00:11;5.70;;;2.53;;
38783;SDS011;24531;45.502;12.238;2023-07-20T09:02:39;6.05;;;2.10;;
38783;SDS011;24531;45.502;12.238;2023-07-20T09:05:07;4.18;;;2.08;;
38783;SDS011;24531;45.502;12.238;2023-07-20T09:07:35;1.80;;;1.70;;
38783;SDS011;24531;45.502;12.238;2023-07-20T09:10:01;5.35;;;2.50;;
38783;SDS011;24531;45.502;12.238;2023-07-20T09:12:31;2.67;;;1.60;;
38783;SDS011;24531;45.502;12.238;2023-07-20T09:15:03;6.13;;;2.22;;
38783;SDS011;24531;45.502;12.238;2023-07-20T09:17:29;2.95;;;1.95;;
38783;SDS011;24531;45.502;12.238;2023-07-20T09:19:55;3.95;;;2.50;;
38783;SDS011;24531;45.502;12.238;2023-07-20T09:22:21;3.10;;;1.83;;
38783;SDS011;24531;45.502;12.238;2023-07-20T09:24:47;3.55;;;1.73;;
38783;SDS011;24531;45.502;12.238;2023-07-20T09:27:12;5.22;;;1.95;;
38783;SDS011;24531;45.502;12.238;2023-07-20T09:29:48;3.60;;;2.28;;
38783;SDS011;24531;45.502;12.238;2023-07-20T09:32:17;4.25;;;2.50;;
38783;SDS011;24531;45.502;12.238;2023-07-20T09:34:45;3.60;;;1.92;;
38783;SDS011;24531;45.502;12.238;2023-07-20T09:37:11;2.58;;;2.05;;
38783;SDS011;24531;45.502;12.238;2023-07-20T09:39:46;6.32;;;2.33;;
38783;SDS011;24531;45.502;12.238;2023-07-20T09:42:12;5.25;;;1.92;;
38783;SDS011;24531;45.502;12.238;2023-07-20T09:44:38;3.47;;;1.88;;
38783;SDS011;24531;45.502;12.238;2023-07-20T09:47:05;2.80;;;2.20;;
38783;SDS011;24531;45.502;12.238;2023-07-20T09:49:31;4.70;;;2.30;;
38783;SDS011;24531;45.502;12.238;2023-07-20T09:51:59;5.35;;;2.20;;
38783;SDS011;24531;45.502;12.238;2023-07-20T09:54:27;3.25;;;2.67;;
38783;SDS011;24531;45.502;12.238;2023-07-20T09:56:55;5.07;;;2.40;;
38783;SDS011;24531;45.502;12.238;2023-07-20T09:59:24;2.90;;;2.20;;
38783;SDS011;24531;45.502;12.238;2023-07-20T10:01:53;3.95;;;2.30;;
38783;SDS011;24531;45.502;12.238;2023-07-20T10:04:23;2.28;;;1.67;;
38783;SDS011;24531;45.502;12.238;2023-07-20T10:06:50;2.67;;;1.90;;
38783;SDS011;24531;45.502;12.238;2023-07-20T10:09:24;3.22;;;2.03;;
38783;SDS011;24531;45.502;12.238;2023-07-20T10:11:51;2.50;;;1.70;;
38783;SDS011;24531;45.502;12.238;2023-07-20T10:14:19;2.88;;;1.77;;
38783;SDS011;24531;45.502;12.238;2023-07-20T10:16:50;2.25;;;1.58;;
38783;SDS011;24531;45.502;12.238;2023-07-20T10:19:42;8.57;;;1.70;;
38783;SDS011;24531;45.502;12.238;2023-07-20T10:22:44;1.95;;;1.38;;
38783;SDS011;24531;45.502;12.238;2023-07-20T10:25:04;3.33;;;1.40;;
38783;SDS011;24531;45.502;12.238;2023-07-20T10:27:35;4.72;;;1.70;;
38783;SDS011;24531;45.502;12.238;2023-07-20T10:30:00;4.28;;;1.30;;
38783;SDS011;24531;45.502;12.238;2023-07-20T10:32:28;2.45;;;1.33;;
38783;SDS011;24531;45.502;12.238;2023-07-20T10:34:55;3.13;;;1.60;;
38783;SDS011;24531;45.502;12.238;2023-07-20T10:40:26;3.65;;;1.85;;
38783;SDS011;24531;45.502;12.238;2023-07-20T10:43:04;3.83;;;1.40;;
38783;SDS011;24531;45.502;12.238;2023-07-20T10:45:41;3.47;;;1.30;;
38783;SDS011;24531;45.502;12.238;2023-07-20T10:48:13;3.55;;;1.77;;
38783;SDS011;24531;45.502;12.238;2023-07-20T10:53:39;4.80;;;1.58;;
38783;SDS011;24531;45.502;12.238;2023-07-20T10:56:06;2.30;;;1.50;;
38783;SDS011;24531;45.502;12.238;2023-07-20T10:58:33;3.97;;;2.20;;
38783;SDS011;24531;45.502;12.238;2023-07-20T11:01:03;5.75;;;1.80;;
38783;SDS011;24531;45.502;12.238;2023-07-20T11:03:31;3.75;;;1.50;;
38783;SDS011;24531;45.502;12.238;2023-07-20T11:11:30;3.97;;;1.98;;
38783;SDS011;24531;45.502;12.238;2023-07-20T11:14:19;7.97;;;1.88;;
38783;SDS011;24531;45.502;12.238;2023-07-20T11:16:49;2.47;;;1.70;;
38783;SDS011;24531;45.502;12.238;2023-07-20T11:21:53;3.38;;;1.40;;
38783;SDS011;24531;45.502;12.238;2023-07-20T11:24:25;4.75;;;1.80;;
38783;SDS011;24531;45.502;12.238;2023-07-20T11:26:52;1.95;;;1.75;;
38783;SDS011;24531;45.502;12.238;2023-07-20T11:29:22;2.22;;;1.73;;
38783;SDS011;24531;45.502;12.238;2023-07-20T11:31:56;6.93;;;5.20;;
38783;SDS011;24531;45.502;12.238;2023-07-20T11:34:29;4.68;;;2.42;;
38783;SDS011;24531;45.502;12.238;2023-07-20T11:36:59;4.13;;;2.25;;
38783;SDS011;24531;45.502;12.238;2023-07-20T11:39:25;3.45;;;2.10;;
38783;SDS011;24531;45.502;12.238;2023-07-20T11:41:52;2.15;;;1.70;;
38783;SDS011;24531;45.502;12.238;2023-07-20T11:44:28;4.55;;;1.58;;
38783;SDS011;24531;45.502;12.238;2023-07-20T11:49:27;4.35;;;2.22;;
38783;SDS011;24531;45.502;12.238;2023-07-20T11:51:55;3.00;;;2.20;;
38783;SDS011;24531;45.502;12.238;2023-07-20T11:54:21;3.10;;;1.85;;
38783;SDS011;24531;45.502;12.238;2023-07-20T11:56:48;4.88;;;2.10;;
38783;SDS011;24531;45.502;12.238;2023-07-20T11:59:13;2.80;;;2.00;;
38783;SDS011;24531;45.502;12.238;2023-07-20T12:01:42;2.35;;;1.55;;
38783;SDS011;24531;45.502;12.238;2023-07-20T12:04:07;3.03;;;1.52;;
38783;SDS011;24531;45.502;12.238;2023-07-20T12:06:33;4.60;;;1.80;;
38783;SDS011;24531;45.502;12.238;2023-07-20T12:09:02;3.70;;;1.90;;
38783;SDS011;24531;45.502;12.238;2023-07-20T12:11:38;5.25;;;1.50;;
38783;SDS011;24531;45.502;12.238;2023-07-20T12:14:07;3.47;;;1.90;;
38783;SDS011;24531;45.502;12.238;2023-07-20T12:16:37;7.20;;;1.70;;
38783;SDS011;24531;45.502;12.238;2023-07-20T12:19:10;4.45;;;1.75;;
38783;SDS011;24531;45.502;12.238;2023-07-20T12:21:37;4.90;;;2.10;;
38783;SDS011;24531;45.502;12.238;2023-07-20T12:24:05;2.78;;;1.70;;
38783;SDS011;24531;45.502;12.238;2023-07-20T12:26:32;3.15;;;1.90;;
38783;SDS011;24531;45.502;12.238;2023-07-20T12:28:59;4.25;;;1.88;;
38783;SDS011;24531;45.502;12.238;2023-07-20T12:31:28;3.20;;;2.00;;
38783;SDS011;24531;45.502;12.238;2023-07-20T12:33:54;4.55;;;1.90;;
38783;SDS011;24531;45.502;12.238;2023-07-20T12:36:21;7.78;;;1.80;;
38783;SDS011;24531;45.502;12.238;2023-07-20T12:38:50;3.05;;;1.42;;
38783;SDS011;24531;45.502;12.238;2023-07-20T12:41:16;3.08;;;1.75;;
38783;SDS011;24531;45.502;12.238;2023-07-20T12:43:42;6.72;;;2.22;;
38783;SDS011;24531;45.502;12.238;2023-07-20T12:46:14;3.53;;;1.85;;
38783;SDS011;24531;45.502;12.238;2023-07-20T12:48:40;7.63;;;2.00;;
38783;SDS011;24531;45.502;12.238;2023-07-20T12:51:07;3.00;;;1.80;;
38783;SDS011;24531;45.502;12.238;2023-07-20T12:53:33;4.57;;;1.50;;
38783;SDS011;24531;45.502;12.238;2023-07-20T12:55:59;2.88;;;1.73;;
38783;SDS011;24531;45.502;12.238;2023-07-20T12:58:25;2.65;;;1.48;;
38783;SDS011;24531;45.502;12.238;2023-07-20T13:00:51;6.03;;;2.05;;
38783;SDS011;24531;45.502;12.238;2023-07-20T13:06:07;3.28;;;2.00;;
38783;SDS011;24531;45.502;12.238;2023-07-20T13:11:31;2.88;;;1.55;;
38783;SDS011;24531;45.502;12.238;2023-07-20T13:13:57;2.30;;;1.40;;
38783;SDS011;24531;45.502;12.238;2023-07-20T13:16:23;4.32;;;1.88;;
38783;SDS011;24531;45.502;12.238;2023-07-20T13:18:52;7.28;;;1.80;;
38783;SDS011;24531;45.502;12.238;2023-07-20T13:21:20;3.20;;;1.83;;
38783;SDS011;24531;45.502;12.238;2023-07-20T13:23:47;6.18;;;2.22;;
38783;SDS011;24531;45.502;12.238;2023-07-20T13:26:13;4.20;;;1.83;;
38783;SDS011;24531;45.502;12.238;2023-07-20T13:28:42;4.22;;;1.92;;
38783;SDS011;24531;45.502;12.238;2023-07-20T13:31:08;7.47;;;2.10;;
38783;SDS011;24531;45.502;12.238;2023-07-20T13:33:39;2.50;;;1.63;;
38783;SDS011;24531;45.502;12.238;2023-07-20T13:36:05;4.45;;;1.60;;
38783;SDS011;24531;45.502;12.238;2023-07-20T13:38:31;2.45;;;1.73;;
38783;SDS011;24531;45.502;12.238;2023-07-20T13:40:56;4.78;;;2.10;;
38783;SDS011;24531;45.502;12.238;2023-07-20T13:43:22;3.08;;;1.95;;
38783;SDS011;24531;45.502;12.238;2023-07-20T13:45:48;4.88;;;1.80;;
38783;SDS011;24531;45.502;12.238;2023-07-20T13:48:13;11.65;;;2.05;;
38783;SDS011;24531;45.502;12.238;2023-07-20T13:50:40;4.22;;;1.70;;
38783;SDS011;24531;45.502;12.238;2023-07-20T13:53:08;5.30;;;2.20;;
38783;SDS011;24531;45.502;12.238;2023-07-20T13:55:34;3.40;;;2.08;;
38783;SDS011;24531;45.502;12.238;2023-07-20T13:58:01;5.28;;;1.80;;
38783;SDS011;24531;45.502;12.238;2023-07-20T14:00:27;3.33;;;2.08;;
38783;SDS011;24531;45.502;12.238;2023-07-20T14:03:00;3.75;;;2.08;;
38783;SDS011;24531;45.502;12.238;2023-07-20T14:05:26;4.70;;;2.20;;
38783;SDS011;24531;45.502;12.238;2023-07-20T14:07:53;4.47;;;2.10;;
38783;SDS011;24531;45.502;12.238;2023-07-20T14:10:22;4.82;;;1.88;;
38783;SDS011;24531;45.502;12.238;2023-07-20T14:12:47;4.28;;;1.88;;
38783;SDS011;24531;45.502;12.238;2023-07-20T14:15:13;4.65;;;1.95;;
38783;SDS011;24531;45.502;12.238;2023-07-20T14:17:39;4.13;;;1.80;;
38783;SDS011;24531;45.502;12.238;2023-07-20T14:20:04;2.85;;;1.70;;
38783;SDS011;24531;45.502;12.238;2023-07-20T14:22:31;3.95;;;2.00;;
38783;SDS011;24531;45.502;12.238;2023-07-20T14:24:57;3.65;;;1.95;;
38783;SDS011;24531;45.502;12.238;2023-07-20T14:27:24;3.70;;;1.85;;
38783;SDS011;24531;45.502;12.238;2023-07-20T14:29:49;2.10;;;1.40;;
38783;SDS011;24531;45.502;12.238;2023-07-20T14:32:15;5.38;;;2.17;;
38783;SDS011;24531;45.502;12.238;2023-07-20T14:34:41;2.80;;;1.70;;
38783;SDS011;24531;45.502;12.238;2023-07-20T14:37:09;3.55;;;1.95;;
38783;SDS011;24531;45.502;12.238;2023-07-20T14:39:35;5.85;;;1.98;;
38783;SDS011;24531;45.502;12.238;2023-07-20T14:42:01;5.15;;;1.88;;
38783;SDS011;24531;45.502;12.238;2023-07-20T14:44:28;3.47;;;1.95;;
38783;SDS011;24531;45.502;12.238;2023-07-20T14:46:54;3.03;;;1.67;;
38783;SDS011;24531;45.502;12.238;2023-07-20T14:49:20;6.35;;;3.53;;
38783;SDS011;24531;45.502;12.238;2023-07-20T14:51:46;4.57;;;2.47;;
38783;SDS011;24531;45.502;12.238;2023-07-20T14:54:12;5.25;;;2.15;;
38783;SDS011;24531;45.502;12.238;2023-07-20T14:56:39;2.88;;;2.28;;
38783;SDS011;24531;45.502;12.238;2023-07-20T14:59:14;3.55;;;2.00;;
38783;SDS011;24531;45.502;12.238;2023-07-20T15:01:40;5.20;;;2.08;;
38783;SDS011;24531;45.502;12.238;2023-07-20T15:04:05;3.90;;;2.10;;
38783;SDS011;24531;45.502;12.238;2023-07-20T15:06:31;3.15;;;1.85;;
38783;SDS011;24531;45.502;12.238;2023-07-20T15:08:57;7.50;;;1.98;;
38783;SDS011;24531;45.502;12.238;2023-07-20T15:11:22;4.07;;;2.13;;
38783;SDS011;24531;45.502;12.238;2023-07-20T15:13:48;5.75;;;2.20;;
38783;SDS011;24531;45.502;12.238;2023-07-20T15:16:14;6.00;;;2.22;;
38783;SDS011;24531;45.502;12.238;2023-07-20T15:18:40;11.55;;;2.28;;
38783;SDS011;24531;45.502;12.238;2023-07-20T15:21:05;6.25;;;2.65;;
38783;SDS011;24531;45.502;12.238;2023-07-20T15:23:31;3.65;;;2.28;;